Skip Navigation Links Skip Navigation Links

Current Weather

Santacruz Apt, Mumbai (Bombay), India

For information only: do not use for flight planning or navigation.
Latest weather
Observation time Friday, February 23, 2018 7:30 AM IST
Local time Friday, February 23, 2018 8:02 AM IST
Flight conditions Low Instrument Meteorological Conditions
Winds
Wind direction South-Southeast (150°)
Wind speed 5 mph
Visibility 0.7 mi.
Present weather mist
Sky condition
Ceiling unlimited
Temperature 77°F
Dewpoint 72°F
Altimeter 29.83 in.Hg
Derived measurements
Relative humidity 83%
Heat index 77°F
Density altitude 1669 ft.
Remarks
No significant changes expected in the next two hours.
METAR VABB 230200Z 15004KT 1200 R27/1200 BR NSC 25/22 Q1010 NOSIG

Settings

Location code

InnerDrive.Weather 4.0.6615.0 Release CLR 4.0.30319.42000
Copyright ©2018 Inner Drive Technology. All rights reserved. Portions Copyright ©1986-2018 David Braverman.

Find weather

Site navigation


Skip Navigation Links

Place info

Page info

PayPal - The safer, easier way to pay online!

Return home.

Copyright ©2018 Inner Drive Technology. Purveyors of fine, hand-crafted computer software. Page printed 2018-02-23T02:32:36 UTC.